createdAt,value
2019-05-22T00:09:32.194Z,90.52
2019-05-22T00:19:33.102Z,89.37
2019-05-22T00:29:34.917Z,89.85
2019-05-22T00:39:35.671Z,89.41
2019-05-22T00:49:37.389Z,89.22
2019-05-22T00:59:38.187Z,89.56
2019-05-22T01:09:39.086Z,90.61
2019-05-22T01:19:39.952Z,90.77
2019-05-22T01:29:40.914Z,91.39
2019-05-22T01:39:48.652Z,92.30
2019-05-22T01:49:51.176Z,91.15
2019-05-22T01:59:51.943Z,91.38
2019-05-22T02:09:54.631Z,91.25
2019-05-22T02:19:55.938Z,92.12
2019-05-22T02:29:56.690Z,90.96
2019-05-22T02:39:59.411Z,91.59
2019-05-22T02:50:00.093Z,91.49
2019-05-22T03:00:04.588Z,91.33
2019-05-22T03:10:07.724Z,91.20
2019-05-22T03:20:11.289Z,92.54
2019-05-22T03:30:29.539Z,91.97
2019-05-22T03:40:30.465Z,92.50
2019-05-22T03:50:31.309Z,91.79
2019-05-22T04:00:32.535Z,92.37
2019-05-22T04:10:40.861Z,92.69
2019-05-22T04:20:40.219Z,93.20
2019-05-22T04:30:42.751Z,92.81
2019-05-22T04:40:45.314Z,93.01
2019-05-22T04:50:46.839Z,92.49
2019-05-22T05:00:47.702Z,92.77
2019-05-22T05:10:48.574Z,92.41
2019-05-22T05:20:49.457Z,90.02
2019-05-22T05:30:50.488Z,89.95
2019-05-22T05:40:51.401Z,88.69
2019-05-22T05:51:04.609Z,88.03
2019-05-22T06:01:12.089Z,88.60
2019-05-22T06:11:39.328Z,86.86
2019-05-22T06:21:40.392Z,89.03
2019-05-22T06:31:47.913Z,90.50
2019-05-22T06:41:48.815Z,92.13
2019-05-22T06:51:49.587Z,92.22
2019-05-22T07:01:50.880Z,92.31
2019-05-22T07:11:51.752Z,89.93
2019-05-22T07:21:52.455Z,88.87
2019-05-22T07:31:55.419Z,89.32
2019-05-22T07:41:57.251Z,87.11
2019-05-22T07:52:01.696Z,85.18
2019-05-22T08:02:01.067Z,85.45
2019-05-22T08:12:01.881Z,85.51
2019-05-22T08:22:07.171Z,85.73
2019-05-22T08:32:06.338Z,85.49
2019-05-22T08:42:09.062Z,83.21
2019-05-22T08:52:22.883Z,84.22
2019-05-22T09:02:14.191Z,82.25
2019-05-22T09:12:14.884Z,81.40
2019-05-22T09:22:16.258Z,79.82
2019-05-22T09:32:16.966Z,80.59
2019-05-22T09:42:17.818Z,81.08
2019-05-22T09:52:18.589Z,79.73
2019-05-22T10:02:19.345Z,79.48
2019-05-22T10:12:20.242Z,78.23
2019-05-22T10:22:20.937Z,77.23
2019-05-22T10:32:21.774Z,76.32
2019-05-22T10:42:22.585Z,74.49
2019-05-22T10:52:24.488Z,74.85
2019-05-22T11:02:25.231Z,69.86
2019-05-22T11:12:26.292Z,66.79
2019-05-22T11:22:27.032Z,65.46
2019-05-22T11:32:28.143Z,67.25
2019-05-22T11:42:28.993Z,67.78
2019-05-22T11:52:30.770Z,67.31
2019-05-22T12:02:32.815Z,67.39
2019-05-22T12:12:38.512Z,64.86
2019-05-22T12:22:39.879Z,62.85
2019-05-22T12:32:40.928Z,63.72
2019-05-22T12:42:42.124Z,64.00
2019-05-22T12:52:45.415Z,62.13
2019-05-22T13:02:46.497Z,64.63
2019-05-22T13:12:48.274Z,62.10
2019-05-22T13:22:50.430Z,58.89
2019-05-22T13:32:53.051Z,62.53
2019-05-22T13:42:54.175Z,60.45
2019-05-22T13:52:55.188Z,58.89
2019-05-22T14:02:56.468Z,58.02
2019-05-22T14:12:57.258Z,55.50
2019-05-22T14:22:59.102Z,54.97
2019-05-22T14:33:04.236Z,51.83
2019-05-22T14:43:02.789Z,51.00
2019-05-22T14:53:04.928Z,53.05
2019-05-22T15:03:05.935Z,52.18
2019-05-22T15:13:08.221Z,55.17
2019-05-22T15:23:09.402Z,52.83
2019-05-22T15:33:10.267Z,50.46
2019-05-22T15:43:12.710Z,51.39
2019-05-22T15:53:15.860Z,52.58
2019-05-22T16:03:20.833Z,50.30
2019-05-22T16:13:23.818Z,51.74
2019-05-22T16:23:24.674Z,53.36
2019-05-22T16:33:25.470Z,50.45
2019-05-22T16:43:45.438Z,50.45
2019-05-22T16:53:30.410Z,50.66
2019-05-22T17:03:31.064Z,48.57
2019-05-22T17:13:34.135Z,48.24
2019-05-22T17:23:34.862Z,48.06
2019-05-22T17:33:35.745Z,51.32
2019-05-22T17:43:36.974Z,51.16
2019-05-22T17:53:37.683Z,52.08
2019-05-22T18:03:38.853Z,54.49
2019-05-22T18:13:59.924Z,51.31
2019-05-22T18:24:00.721Z,56.56
2019-05-22T18:34:01.680Z,59.10
2019-05-22T18:44:02.559Z,59.37
2019-05-22T18:54:03.309Z,59.50
2019-05-22T19:04:04.144Z,63.80
2019-05-22T19:14:04.863Z,68.51
2019-05-22T19:24:05.598Z,70.62
2019-05-22T19:34:06.380Z,71.20
2019-05-22T19:44:07.190Z,72.11
2019-05-22T19:54:08.124Z,73.14
2019-05-22T20:04:09.431Z,73.64
2019-05-22T20:14:10.112Z,73.84
2019-05-22T20:24:10.926Z,74.42
2019-05-22T20:34:11.568Z,75.77
2019-05-22T20:44:12.257Z,75.04
2019-05-22T20:54:13.039Z,75.04
2019-05-22T21:04:14.491Z,75.28
2019-05-22T21:14:15.144Z,74.26
2019-05-22T21:24:15.862Z,75.43
2019-05-22T21:34:18.006Z,75.53
2019-05-22T21:44:18.768Z,76.17
2019-05-22T21:54:19.645Z,76.11
2019-05-22T22:04:21.648Z,76.32
2019-05-22T22:14:24.448Z,77.23
2019-05-22T22:24:25.214Z,77.22
2019-05-22T22:34:38.979Z,77.38
2019-05-22T22:44:40.567Z,77.33
2019-05-22T22:54:41.293Z,77.68
2019-05-22T23:04:43.392Z,78.35
2019-05-22T23:14:48.097Z,78.19
2019-05-22T23:24:48.895Z,77.72
2019-05-22T23:34:49.568Z,77.82
2019-05-22T23:44:52.839Z,77.76
2019-05-22T23:54:53.788Z,79.12
